sensor_id;sensor_type;location;lat;lon;timestamp;temperature;humidity
18932;DHT22;9598;50.954;3.112;2023-11-19T00:02:52;14.50;99.90
18932;DHT22;9598;50.954;3.112;2023-11-19T00:07:54;14.50;99.90
18932;DHT22;9598;50.954;3.112;2023-11-19T00:12:56;14.50;99.90
18932;DHT22;9598;50.954;3.112;2023-11-19T00:18:00;14.50;99.90
18932;DHT22;9598;50.954;3.112;2023-11-19T00:23:05;14.40;99.90
18932;DHT22;9598;50.954;3.112;2023-11-19T00:28:07;14.40;99.90
18932;DHT22;9598;50.954;3.112;2023-11-19T00:33:12;14.40;99.90
18932;DHT22;9598;50.954;3.112;2023-11-19T00:38:14;14.40;99.90
18932;DHT22;9598;50.954;3.112;2023-11-19T00:43:16;14.40;99.90
18932;DHT22;9598;50.954;3.112;2023-11-19T00:48:21;14.40;99.90
18932;DHT22;9598;50.954;3.112;2023-11-19T00:53:23;14.40;99.90
18932;DHT22;9598;50.954;3.112;2023-11-19T00:58:25;14.30;99.90
18932;DHT22;9598;50.954;3.112;2023-11-19T01:03:29;14.20;99.90
18932;DHT22;9598;50.954;3.112;2023-11-19T01:08:31;14.20;99.90
18932;DHT22;9598;50.954;3.112;2023-11-19T01:13:38;14.20;99.90
18932;DHT22;9598;50.954;3.112;2023-11-19T01:18:43;14.20;99.90
18932;DHT22;9598;50.954;3.112;2023-11-19T01:23:45;14.10;99.90
18932;DHT22;9598;50.954;3.112;2023-11-19T01:28:48;14.10;99.90
18932;DHT22;9598;50.954;3.112;2023-11-19T01:33:51;14.00;99.90
18932;DHT22;9598;50.954;3.112;2023-11-19T01:38:53;14.00;99.90
18932;DHT22;9598;50.954;3.112;2023-11-19T01:43:55;13.90;99.90
18932;DHT22;9598;50.954;3.112;2023-11-19T01:48:59;13.90;99.90
18932;DHT22;9598;50.954;3.112;2023-11-19T01:54:02;13.90;99.90
18932;DHT22;9598;50.954;3.112;2023-11-19T01:59:04;13.90;99.90
18932;DHT22;9598;50.954;3.112;2023-11-19T02:04:08;13.90;99.90
18932;DHT22;9598;50.954;3.112;2023-11-19T02:09:11;13.90;99.90
18932;DHT22;9598;50.954;3.112;2023-11-19T02:14:14;13.90;99.90
18932;DHT22;9598;50.954;3.112;2023-11-19T02:19:19;13.90;99.90
18932;DHT22;9598;50.954;3.112;2023-11-19T02:24:22;13.90;99.90
18932;DHT22;9598;50.954;3.112;2023-11-19T02:29:26;13.80;99.90
18932;DHT22;9598;50.954;3.112;2023-11-19T02:34:28;13.80;99.90
18932;DHT22;9598;50.954;3.112;2023-11-19T02:39:30;13.80;99.90
18932;DHT22;9598;50.954;3.112;2023-11-19T02:44:33;13.80;99.90
18932;DHT22;9598;50.954;3.112;2023-11-19T02:49:35;13.80;99.90
18932;DHT22;9598;50.954;3.112;2023-11-19T02:54:38;13.80;99.90
18932;DHT22;9598;50.954;3.112;2023-11-19T02:59:41;13.70;99.90
18932;DHT22;9598;50.954;3.112;2023-11-19T03:04:44;13.70;99.90
18932;DHT22;9598;50.954;3.112;2023-11-19T03:09:46;13.70;99.90
18932;DHT22;9598;50.954;3.112;2023-11-19T03:14:51;13.60;99.90
18932;DHT22;9598;50.954;3.112;2023-11-19T03:19:53;13.60;99.90
18932;DHT22;9598;50.954;3.112;2023-11-19T03:24:55;13.60;99.90
18932;DHT22;9598;50.954;3.112;2023-11-19T03:29:59;13.60;99.90
18932;DHT22;9598;50.954;3.112;2023-11-19T03:35:01;13.50;99.90
18932;DHT22;9598;50.954;3.112;2023-11-19T03:40:06;13.40;99.90
18932;DHT22;9598;50.954;3.112;2023-11-19T03:45:10;13.40;99.90
18932;DHT22;9598;50.954;3.112;2023-11-19T03:50:12;13.40;99.90
18932;DHT22;9598;50.954;3.112;2023-11-19T03:55:16;13.30;99.90
18932;DHT22;9598;50.954;3.112;2023-11-19T04:00:20;13.30;99.90
18932;DHT22;9598;50.954;3.112;2023-11-19T04:05:22;13.30;99.90
18932;DHT22;9598;50.954;3.112;2023-11-19T04:10:24;13.30;99.90
18932;DHT22;9598;50.954;3.112;2023-11-19T04:15:29;13.20;99.90
18932;DHT22;9598;50.954;3.112;2023-11-19T04:20:31;13.30;99.90
18932;DHT22;9598;50.954;3.112;2023-11-19T04:25:34;13.20;99.90
18932;DHT22;9598;50.954;3.112;2023-11-19T04:30:38;13.20;99.90
18932;DHT22;9598;50.954;3.112;2023-11-19T04:35:40;13.10;99.90
18932;DHT22;9598;50.954;3.112;2023-11-19T04:40:42;13.10;99.90
18932;DHT22;9598;50.954;3.112;2023-11-19T04:45:46;13.10;99.90
18932;DHT22;9598;50.954;3.112;2023-11-19T04:50:48;13.10;99.90
18932;DHT22;9598;50.954;3.112;2023-11-19T04:55:51;13.10;99.90
18932;DHT22;9598;50.954;3.112;2023-11-19T05:00:55;13.10;99.90
18932;DHT22;9598;50.954;3.112;2023-11-19T05:05:57;13.00;99.90
18932;DHT22;9598;50.954;3.112;2023-11-19T05:11:00;13.10;99.90
18932;DHT22;9598;50.954;3.112;2023-11-19T05:16:03;13.00;99.90
18932;DHT22;9598;50.954;3.112;2023-11-19T05:21:06;13.00;99.90
18932;DHT22;9598;50.954;3.112;2023-11-19T05:26:08;12.90;99.90
18932;DHT22;9598;50.954;3.112;2023-11-19T05:31:12;12.90;99.90
18932;DHT22;9598;50.954;3.112;2023-11-19T05:36:14;12.80;99.90
18932;DHT22;9598;50.954;3.112;2023-11-19T05:41:16;12.80;99.90
18932;DHT22;9598;50.954;3.112;2023-11-19T05:46:20;12.70;99.90
18932;DHT22;9598;50.954;3.112;2023-11-19T05:51:22;12.70;99.90
18932;DHT22;9598;50.954;3.112;2023-11-19T05:56:25;12.70;99.90
18932;DHT22;9598;50.954;3.112;2023-11-19T06:01:34;12.60;99.90
18932;DHT22;9598;50.954;3.112;2023-11-19T06:06:37;12.60;99.90
18932;DHT22;9598;50.954;3.112;2023-11-19T06:11:40;12.60;99.90
18932;DHT22;9598;50.954;3.112;2023-11-19T06:16:43;12.60;99.90
18932;DHT22;9598;50.954;3.112;2023-11-19T06:21:45;12.50;99.90
18932;DHT22;9598;50.954;3.112;2023-11-19T06:26:47;12.50;99.90
18932;DHT22;9598;50.954;3.112;2023-11-19T06:31:51;12.50;99.90
18932;DHT22;9598;50.954;3.112;2023-11-19T06:36:53;12.50;99.90
18932;DHT22;9598;50.954;3.112;2023-11-19T06:41:55;12.50;99.90
18932;DHT22;9598;50.954;3.112;2023-11-19T06:46:58;12.50;99.90
18932;DHT22;9598;50.954;3.112;2023-11-19T06:52:01;12.50;99.90
18932;DHT22;9598;50.954;3.112;2023-11-19T06:57:03;12.40;99.90
18932;DHT22;9598;50.954;3.112;2023-11-19T07:02:07;12.40;99.90
18932;DHT22;9598;50.954;3.112;2023-11-19T07:07:09;12.40;99.90
18932;DHT22;9598;50.954;3.112;2023-11-19T07:12:11;12.30;99.90
18932;DHT22;9598;50.954;3.112;2023-11-19T07:17:15;12.30;99.90
18932;DHT22;9598;50.954;3.112;2023-11-19T07:22:18;12.40;99.90
18932;DHT22;9598;50.954;3.112;2023-11-19T07:27:21;12.50;99.90
18932;DHT22;9598;50.954;3.112;2023-11-19T07:32:26;12.50;99.90
18932;DHT22;9598;50.954;3.112;2023-11-19T07:37:28;12.60;99.90
18932;DHT22;9598;50.954;3.112;2023-11-19T07:42:30;12.60;99.90
18932;DHT22;9598;50.954;3.112;2023-11-19T07:47:34;12.60;99.90
18932;DHT22;9598;50.954;3.112;2023-11-19T07:52:37;12.70;99.90
18932;DHT22;9598;50.954;3.112;2023-11-19T07:57:39;12.70;99.90
18932;DHT22;9598;50.954;3.112;2023-11-19T08:02:42;12.70;99.90
18932;DHT22;9598;50.954;3.112;2023-11-19T08:07:44;12.70;99.90
18932;DHT22;9598;50.954;3.112;2023-11-19T08:12:46;12.80;99.90
18932;DHT22;9598;50.954;3.112;2023-11-19T08:17:50;12.80;99.90
18932;DHT22;9598;50.954;3.112;2023-11-19T08:22:52;12.90;99.90
18932;DHT22;9598;50.954;3.112;2023-11-19T08:27:55;12.90;99.90
18932;DHT22;9598;50.954;3.112;2023-11-19T08:32:58;12.90;99.90
18932;DHT22;9598;50.954;3.112;2023-11-19T08:38:04;13.00;99.90
18932;DHT22;9598;50.954;3.112;2023-11-19T08:43:06;13.00;99.90
18932;DHT22;9598;50.954;3.112;2023-11-19T08:48:09;13.00;99.90
18932;DHT22;9598;50.954;3.112;2023-11-19T08:53:13;13.10;99.90
18932;DHT22;9598;50.954;3.112;2023-11-19T08:58:15;13.10;99.90
18932;DHT22;9598;50.954;3.112;2023-11-19T09:03:18;13.20;99.90
18932;DHT22;9598;50.954;3.112;2023-11-19T09:08:21;13.20;99.90
18932;DHT22;9598;50.954;3.112;2023-11-19T09:13:23;13.30;99.90
18932;DHT22;9598;50.954;3.112;2023-11-19T09:18:27;13.30;99.90
18932;DHT22;9598;50.954;3.112;2023-11-19T09:23:29;13.40;99.90
18932;DHT22;9598;50.954;3.112;2023-11-19T09:28:36;13.40;99.90
18932;DHT22;9598;50.954;3.112;2023-11-19T09:33:40;13.30;99.90
18932;DHT22;9598;50.954;3.112;2023-11-19T09:38:43;13.30;99.90
18932;DHT22;9598;50.954;3.112;2023-11-19T09:43:45;13.30;99.90
18932;DHT22;9598;50.954;3.112;2023-11-19T09:48:51;13.20;99.90
18932;DHT22;9598;50.954;3.112;2023-11-19T09:53:55;13.20;99.90
18932;DHT22;9598;50.954;3.112;2023-11-19T09:58:57;13.20;99.90
18932;DHT22;9598;50.954;3.112;2023-11-19T10:04:02;13.20;99.90
18932;DHT22;9598;50.954;3.112;2023-11-19T10:09:05;13.30;99.90
18932;DHT22;9598;50.954;3.112;2023-11-19T10:14:07;13.30;99.90
18932;DHT22;9598;50.954;3.112;2023-11-19T10:19:18;13.40;99.90
18932;DHT22;9598;50.954;3.112;2023-11-19T10:24:31;13.40;99.90
18932;DHT22;9598;50.954;3.112;2023-11-19T10:29:36;13.50;99.90
18932;DHT22;9598;50.954;3.112;2023-11-19T10:34:39;13.60;99.90
18932;DHT22;9598;50.954;3.112;2023-11-19T10:39:52;13.70;99.90
18932;DHT22;9598;50.954;3.112;2023-11-19T10:44:55;13.70;99.90
18932;DHT22;9598;50.954;3.112;2023-11-19T10:49:58;13.80;99.90
18932;DHT22;9598;50.954;3.112;2023-11-19T10:55:02;13.80;99.90
18932;DHT22;9598;50.954;3.112;2023-11-19T11:00:07;13.90;99.90
18932;DHT22;9598;50.954;3.112;2023-11-19T11:05:14;13.90;99.90
18932;DHT22;9598;50.954;3.112;2023-11-19T11:10:18;13.90;99.90
18932;DHT22;9598;50.954;3.112;2023-11-19T11:15:25;13.90;99.90
18932;DHT22;9598;50.954;3.112;2023-11-19T11:20:30;13.90;99.90
18932;DHT22;9598;50.954;3.112;2023-11-19T11:25:39;13.90;99.90
18932;DHT22;9598;50.954;3.112;2023-11-19T11:30:52;13.80;99.90
18932;DHT22;9598;50.954;3.112;2023-11-19T11:36:06;13.80;99.90
18932;DHT22;9598;50.954;3.112;2023-11-19T11:41:22;13.90;99.90
18932;DHT22;9598;50.954;3.112;2023-11-19T11:46:54;14.00;99.90
18932;DHT22;9598;50.954;3.112;2023-11-19T11:52:04;14.10;99.90
18932;DHT22;9598;50.954;3.112;2023-11-19T11:57:08;14.20;99.90
18932;DHT22;9598;50.954;3.112;2023-11-19T12:02:12;14.20;99.90
18932;DHT22;9598;50.954;3.112;2023-11-19T12:07:16;14.20;99.90
18932;DHT22;9598;50.954;3.112;2023-11-19T12:12:21;14.10;99.90
18932;DHT22;9598;50.954;3.112;2023-11-19T12:17:43;14.10;99.90
18932;DHT22;9598;50.954;3.112;2023-11-19T12:22:52;14.00;99.90
18932;DHT22;9598;50.954;3.112;2023-11-19T12:27:55;14.00;99.90
18932;DHT22;9598;50.954;3.112;2023-11-19T12:32:57;14.10;99.90
18932;DHT22;9598;50.954;3.112;2023-11-19T12:38:01;14.10;99.90
18932;DHT22;9598;50.954;3.112;2023-11-19T12:43:04;14.20;99.90
18932;DHT22;9598;50.954;3.112;2023-11-19T12:48:07;14.20;99.90
18932;DHT22;9598;50.954;3.112;2023-11-19T12:53:11;14.20;99.90
18932;DHT22;9598;50.954;3.112;2023-11-19T12:58:28;14.20;99.90
18932;DHT22;9598;50.954;3.112;2023-11-19T13:03:31;14.20;99.90
18932;DHT22;9598;50.954;3.112;2023-11-19T13:08:39;14.20;99.90
18932;DHT22;9598;50.954;3.112;2023-11-19T13:13:54;14.10;99.90
18932;DHT22;9598;50.954;3.112;2023-11-19T13:18:57;14.10;99.90
18932;DHT22;9598;50.954;3.112;2023-11-19T13:24:02;14.10;99.90
18932;DHT22;9598;50.954;3.112;2023-11-19T13:29:05;14.00;99.90
18932;DHT22;9598;50.954;3.112;2023-11-19T13:34:07;13.90;99.90
18932;DHT22;9598;50.954;3.112;2023-11-19T13:39:11;13.90;99.90
18932;DHT22;9598;50.954;3.112;2023-11-19T13:44:13;13.80;99.90
18932;DHT22;9598;50.954;3.112;2023-11-19T13:49:15;13.70;99.90
18932;DHT22;9598;50.954;3.112;2023-11-19T13:54:18;13.70;99.90
18932;DHT22;9598;50.954;3.112;2023-11-19T13:59:22;13.70;99.90
18932;DHT22;9598;50.954;3.112;2023-11-19T14:04:24;13.70;99.90
18932;DHT22;9598;50.954;3.112;2023-11-19T14:09:28;13.80;99.90
18932;DHT22;9598;50.954;3.112;2023-11-19T14:14:30;13.80;99.90
18932;DHT22;9598;50.954;3.112;2023-11-19T14:19:32;13.80;99.90
18932;DHT22;9598;50.954;3.112;2023-11-19T14:24:36;13.80;99.90
18932;DHT22;9598;50.954;3.112;2023-11-19T14:29:38;13.80;99.90
18932;DHT22;9598;50.954;3.112;2023-11-19T14:34:40;13.80;99.90
18932;DHT22;9598;50.954;3.112;2023-11-19T14:39:44;13.70;99.90
18932;DHT22;9598;50.954;3.112;2023-11-19T14:44:46;13.70;99.90
18932;DHT22;9598;50.954;3.112;2023-11-19T14:49:48;13.70;99.90
18932;DHT22;9598;50.954;3.112;2023-11-19T14:54:52;13.60;99.90
18932;DHT22;9598;50.954;3.112;2023-11-19T14:59:57;13.50;99.90
18932;DHT22;9598;50.954;3.112;2023-11-19T15:04:59;13.50;99.90
18932;DHT22;9598;50.954;3.112;2023-11-19T15:10:02;13.50;99.90
18932;DHT22;9598;50.954;3.112;2023-11-19T15:15:10;13.50;99.90
18932;DHT22;9598;50.954;3.112;2023-11-19T15:20:14;13.40;99.90
18932;DHT22;9598;50.954;3.112;2023-11-19T15:25:20;13.50;99.90
18932;DHT22;9598;50.954;3.112;2023-11-19T15:30:23;13.50;99.90
18932;DHT22;9598;50.954;3.112;2023-11-19T15:35:26;13.40;99.90
18932;DHT22;9598;50.954;3.112;2023-11-19T15:40:30;13.50;99.90
18932;DHT22;9598;50.954;3.112;2023-11-19T15:45:32;13.50;99.90
18932;DHT22;9598;50.954;3.112;2023-11-19T15:50:38;13.50;99.90
18932;DHT22;9598;50.954;3.112;2023-11-19T15:55:41;13.40;99.90
18932;DHT22;9598;50.954;3.112;2023-11-19T16:00:44;13.50;99.90
18932;DHT22;9598;50.954;3.112;2023-11-19T16:05:47;13.40;99.90
18932;DHT22;9598;50.954;3.112;2023-11-19T16:10:51;13.30;99.90
18932;DHT22;9598;50.954;3.112;2023-11-19T16:15:53;13.30;99.90
18932;DHT22;9598;50.954;3.112;2023-11-19T16:20:55;13.30;99.90
18932;DHT22;9598;50.954;3.112;2023-11-19T16:25:59;13.30;99.90
18932;DHT22;9598;50.954;3.112;2023-11-19T16:31:01;13.20;99.90
18932;DHT22;9598;50.954;3.112;2023-11-19T16:36:03;13.20;99.90
18932;DHT22;9598;50.954;3.112;2023-11-19T16:41:08;13.20;99.90
18932;DHT22;9598;50.954;3.112;2023-11-19T16:46:10;13.20;99.90
18932;DHT22;9598;50.954;3.112;2023-11-19T16:51:13;13.10;99.90
18932;DHT22;9598;50.954;3.112;2023-11-19T16:56:18;13.10;99.90
18932;DHT22;9598;50.954;3.112;2023-11-19T17:01:21;13.10;99.90
18932;DHT22;9598;50.954;3.112;2023-11-19T17:06:23;13.10;99.90
18932;DHT22;9598;50.954;3.112;2023-11-19T17:11:27;13.10;99.90
18932;DHT22;9598;50.954;3.112;2023-11-19T17:16:29;13.10;99.90
18932;DHT22;9598;50.954;3.112;2023-11-19T17:21:31;13.20;99.90
18932;DHT22;9598;50.954;3.112;2023-11-19T17:26:34;13.20;99.90
18932;DHT22;9598;50.954;3.112;2023-11-19T17:31:36;13.30;99.90
18932;DHT22;9598;50.954;3.112;2023-11-19T17:36:39;13.30;99.90
18932;DHT22;9598;50.954;3.112;2023-11-19T17:41:42;13.30;99.90
18932;DHT22;9598;50.954;3.112;2023-11-19T17:46:45;13.30;99.90
18932;DHT22;9598;50.954;3.112;2023-11-19T17:51:47;13.40;99.90
18932;DHT22;9598;50.954;3.112;2023-11-19T17:56:50;13.40;99.90
18932;DHT22;9598;50.954;3.112;2023-11-19T18:01:52;13.40;99.90
18932;DHT22;9598;50.954;3.112;2023-11-19T18:06:56;13.40;99.90
18932;DHT22;9598;50.954;3.112;2023-11-19T18:12:00;13.40;99.90
18932;DHT22;9598;50.954;3.112;2023-11-19T18:17:03;13.40;99.90
18932;DHT22;9598;50.954;3.112;2023-11-19T18:22:06;13.40;99.90
18932;DHT22;9598;50.954;3.112;2023-11-19T18:27:09;13.40;99.90
18932;DHT22;9598;50.954;3.112;2023-11-19T18:32:11;13.40;99.90
18932;DHT22;9598;50.954;3.112;2023-11-19T18:37:13;13.30;99.90
18932;DHT22;9598;50.954;3.112;2023-11-19T18:42:17;13.30;99.90
18932;DHT22;9598;50.954;3.112;2023-11-19T18:47:19;13.30;99.90
18932;DHT22;9598;50.954;3.112;2023-11-19T18:52:21;13.30;99.90
18932;DHT22;9598;50.954;3.112;2023-11-19T18:57:25;13.30;99.90
18932;DHT22;9598;50.954;3.112;2023-11-19T19:02:28;13.40;99.90
18932;DHT22;9598;50.954;3.112;2023-11-19T19:07:30;13.40;99.90
18932;DHT22;9598;50.954;3.112;2023-11-19T19:12:34;13.40;99.90
18932;DHT22;9598;50.954;3.112;2023-11-19T19:17:36;13.40;99.90
18932;DHT22;9598;50.954;3.112;2023-11-19T19:22:38;13.40;99.90
18932;DHT22;9598;50.954;3.112;2023-11-19T19:27:43;13.40;99.90
18932;DHT22;9598;50.954;3.112;2023-11-19T19:32:46;13.30;99.90
18932;DHT22;9598;50.954;3.112;2023-11-19T19:37:48;13.30;99.90
18932;DHT22;9598;50.954;3.112;2023-11-19T19:42:51;13.40;99.90
18932;DHT22;9598;50.954;3.112;2023-11-19T19:47:54;13.40;99.90
18932;DHT22;9598;50.954;3.112;2023-11-19T19:52:57;13.40;99.90
18932;DHT22;9598;50.954;3.112;2023-11-19T19:58:00;13.40;99.90
18932;DHT22;9598;50.954;3.112;2023-11-19T20:03:05;13.40;99.90
18932;DHT22;9598;50.954;3.112;2023-11-19T20:08:07;13.40;99.90
18932;DHT22;9598;50.954;3.112;2023-11-19T20:13:10;13.40;99.90
18932;DHT22;9598;50.954;3.112;2023-11-19T20:18:13;13.40;99.90
18932;DHT22;9598;50.954;3.112;2023-11-19T20:23:17;13.40;99.90
18932;DHT22;9598;50.954;3.112;2023-11-19T20:28:21;13.40;99.90
18932;DHT22;9598;50.954;3.112;2023-11-19T20:33:23;13.40;99.90
18932;DHT22;9598;50.954;3.112;2023-11-19T20:38:25;13.40;99.90
18932;DHT22;9598;50.954;3.112;2023-11-19T20:43:29;13.40;99.90
18932;DHT22;9598;50.954;3.112;2023-11-19T20:48:32;13.40;99.90
18932;DHT22;9598;50.954;3.112;2023-11-19T20:53:35;13.40;99.90
18932;DHT22;9598;50.954;3.112;2023-11-19T20:58:38;13.40;99.90
18932;DHT22;9598;50.954;3.112;2023-11-19T21:03:40;13.40;99.90
18932;DHT22;9598;50.954;3.112;2023-11-19T21:08:43;13.40;99.90
18932;DHT22;9598;50.954;3.112;2023-11-19T21:13:46;13.40;99.90
18932;DHT22;9598;50.954;3.112;2023-11-19T21:18:49;13.40;99.90
18932;DHT22;9598;50.954;3.112;2023-11-19T21:23:51;13.40;99.90
18932;DHT22;9598;50.954;3.112;2023-11-19T21:28:55;13.40;99.90
18932;DHT22;9598;50.954;3.112;2023-11-19T21:33:57;13.40;99.90
18932;DHT22;9598;50.954;3.112;2023-11-19T21:39:00;13.40;99.90
18932;DHT22;9598;50.954;3.112;2023-11-19T21:44:06;13.30;99.90
18932;DHT22;9598;50.954;3.112;2023-11-19T21:49:08;13.30;99.90
18932;DHT22;9598;50.954;3.112;2023-11-19T21:54:11;13.10;99.90
18932;DHT22;9598;50.954;3.112;2023-11-19T21:59:14;13.00;99.90
18932;DHT22;9598;50.954;3.112;2023-11-19T22:04:16;13.00;99.90
18932;DHT22;9598;50.954;3.112;2023-11-19T22:09:18;13.00;99.90
18932;DHT22;9598;50.954;3.112;2023-11-19T22:14:22;13.00;99.90
18932;DHT22;9598;50.954;3.112;2023-11-19T22:19:25;13.00;99.90
18932;DHT22;9598;50.954;3.112;2023-11-19T22:24:27;13.00;99.90
18932;DHT22;9598;50.954;3.112;2023-11-19T22:29:30;13.00;99.90
18932;DHT22;9598;50.954;3.112;2023-11-19T22:34:33;13.00;99.90
18932;DHT22;9598;50.954;3.112;2023-11-19T22:39:35;13.00;99.90
18932;DHT22;9598;50.954;3.112;2023-11-19T22:44:39;13.00;99.90
18932;DHT22;9598;50.954;3.112;2023-11-19T22:49:41;13.00;99.90
18932;DHT22;9598;50.954;3.112;2023-11-19T22:54:43;12.90;99.90
18932;DHT22;9598;50.954;3.112;2023-11-19T22:59:46;13.00;99.90
18932;DHT22;9598;50.954;3.112;2023-11-19T23:04:48;12.90;99.90
18932;DHT22;9598;50.954;3.112;2023-11-19T23:09:50;12.90;99.90
18932;DHT22;9598;50.954;3.112;2023-11-19T23:14:54;12.90;99.90
18932;DHT22;9598;50.954;3.112;2023-11-19T23:20:02;12.90;99.90
18932;DHT22;9598;50.954;3.112;2023-11-19T23:25:07;12.90;99.90
18932;DHT22;9598;50.954;3.112;2023-11-19T23:30:11;12.90;99.90
18932;DHT22;9598;50.954;3.112;2023-11-19T23:35:16;12.90;99.90
18932;DHT22;9598;50.954;3.112;2023-11-19T23:40:18;12.90;99.90
18932;DHT22;9598;50.954;3.112;2023-11-19T23:45:22;12.90;99.90
18932;DHT22;9598;50.954;3.112;2023-11-19T23:50:24;12.80;99.90
18932;DHT22;9598;50.954;3.112;2023-11-19T23:55:26;12.80;99.90
